Time;durP1;ratioP1;P1;durP2;ratioP2;P2;SDS_P1;SDS_P2;PMS_P1;PMS_P2;Temp;Humidity;BMP_temperature;BMP_pressure;BME280_temperature;BME280_humidity;BME280_pressure;Samples;Min_cycle;Max_cycle;Signal;HPM_P1;HPM_P2
2021/11/24 00:01:43;;;;;;;;;34.25;29.25;;;;;-147.17;100.00;50328.25;5031749;28;51219;-70
2021/11/24 00:04:08;;;;;;;;;24.75;24.50;;;;;-147.17;100.00;50322.34;5028045;28;51338;-67
2021/11/24 00:06:34;;;;;;;;;29.25;24.50;;;;;-147.17;100.00;50326.28;5029806;28;52859;-69
2021/11/24 00:08:59;;;;;;;;;32.00;30.50;;;;;-147.17;100.00;50304.66;5025338;28;51217;-69
2021/11/24 00:11:24;;;;;;;;;33.00;28.00;;;;;-147.17;100.00;50316.44;5029024;28;50932;-69
2021/11/24 00:13:50;;;;;;;;;37.00;33.75;;;;;-147.17;100.00;50328.25;5021879;28;51410;-69
2021/11/24 00:16:16;;;;;;;;;26.00;26.00;;;;;-147.17;100.00;50344.00;5032708;28;52598;-66
2021/11/24 00:18:41;;;;;;;;;24.25;23.25;;;;;-147.17;100.00;50347.94;5031886;28;51097;-68
2021/11/24 00:21:07;;;;;;;;;31.00;26.50;;;;;-147.17;100.00;50316.44;5016746;28;51029;-68
2021/11/24 00:23:33;;;;;;;;;26.00;25.75;;;;;-147.17;100.00;50351.88;5033316;28;51007;-69
2021/11/24 00:25:58;;;;;;;;;30.50;26.25;;;;;-147.17;100.00;50347.94;5029881;28;51079;-69
2021/11/24 00:28:24;;;;;;;;;29.50;27.75;;;;;-147.17;100.00;50324.31;5032949;28;51058;-69
2021/11/24 00:30:49;;;;;;;;;26.50;26.25;;;;;-147.17;100.00;50308.59;5017472;28;51068;-63
2021/11/24 00:33:15;;;;;;;;;30.50;28.50;;;;;-147.17;100.00;50353.84;5015410;28;50830;-62
2021/11/24 00:35:40;;;;;;;;;29.00;27.50;;;;;-147.17;100.00;50328.25;5028249;28;50982;-63
2021/11/24 00:38:06;;;;;;;;;28.50;26.75;;;;;-147.17;100.00;50344.00;4983517;28;50977;-63
2021/11/24 00:40:31;;;;;;;;;26.00;25.50;;;;;-147.17;100.00;50320.38;5031799;28;51198;-63
2021/11/24 00:42:56;;;;;;;;;34.00;27.25;;;;;-147.17;100.00;50308.59;5014181;28;51244;-63
2021/11/24 00:45:22;;;;;;;;;31.00;29.50;;;;;-147.17;100.00;50345.97;5015625;28;52130;-63
2021/11/24 00:47:49;;;;;;;;;30.00;26.75;;;;;-147.17;100.00;50316.44;5021232;28;51610;-62
2021/11/24 00:50:14;;;;;;;;;28.25;25.00;;;;;-147.17;100.00;50338.09;5014213;28;51163;-59
2021/11/24 00:52:40;;;;;;;;;30.50;26.75;;;;;-147.17;100.00;50308.59;5013883;28;51400;-65
2021/11/24 00:55:05;;;;;;;;;25.25;23.75;;;;;-147.17;100.00;50279.06;5023941;28;55089;-64
2021/11/24 00:57:31;;;;;;;;;27.00;24.50;;;;;-147.17;100.00;50308.59;5044203;28;54305;-65
2021/11/24 00:59:56;;;;;;;;;28.00;26.50;;;;;-147.17;100.00;50326.28;5027831;28;51086;-66
2021/11/24 01:02:22;;;;;;;;;27.75;25.75;;;;;-147.17;100.00;50330.22;5031588;28;51449;-67
2021/11/24 01:04:47;;;;;;;;;27.00;27.00;;;;;-147.17;100.00;50316.44;5028970;28;52646;-66
2021/11/24 01:07:13;;;;;;;;;27.75;26.25;;;;;-147.17;100.00;50326.28;5020341;28;51218;-65
2021/11/24 01:09:39;;;;;;;;;24.25;22.25;;;;;-147.17;100.00;50324.31;5012533;28;51034;-65
2021/11/24 01:12:06;;;;;;;;;28.75;26.75;;;;;-147.17;100.00;50310.56;5013144;28;51830;-69
2021/11/24 01:14:31;;;;;;;;;26.25;24.75;;;;;-147.17;100.00;50308.59;5022125;28;53641;-69
2021/11/24 01:16:56;;;;;;;;;35.75;29.00;;;;;-147.17;100.00;50328.25;5025220;28;51266;-64
2021/11/24 01:19:22;;;;;;;;;30.00;28.75;;;;;-147.17;100.00;50306.63;5021780;28;50854;-65
2021/11/24 01:21:47;;;;;;;;;26.75;24.50;;;;;-147.17;100.00;50347.94;5024982;28;51260;-67
2021/11/24 01:24:13;;;;;;;;;29.25;27.50;;;;;-147.17;100.00;50338.09;5031630;28;51700;-66
2021/11/24 01:26:38;;;;;;;;;31.25;27.75;;;;;-147.17;100.00;50322.34;5029571;28;51293;-66
2021/11/24 01:29:04;;;;;;;;;23.50;21.75;;;;;-147.17;100.00;50342.03;5026214;28;51169;-66
2021/11/24 01:31:29;;;;;;;;;26.75;25.00;;;;;-147.17;100.00;50322.34;5029769;28;51347;-64
2021/11/24 01:33:55;;;;;;;;;30.25;27.25;;;;;-147.17;100.00;50324.31;5026761;28;52865;-66
2021/11/24 01:36:20;;;;;;;;;20.00;19.00;;;;;-147.17;100.00;50312.53;5026039;28;51077;-66
2021/11/24 01:38:46;;;;;;;;;27.75;25.00;;;;;-147.17;100.00;50324.31;5031078;28;51196;-65
2021/11/24 01:41:13;;;;;;;;;24.00;22.25;;;;;-147.17;100.00;50308.59;5031230;28;51133;-66
2021/11/24 01:43:38;;;;;;;;;30.50;27.00;;;;;-147.17;100.00;50332.19;5030344;28;52271;-65
2021/11/24 01:46:04;;;;;;;;;27.00;26.25;;;;;-147.17;100.00;50302.69;5015532;28;51331;-65
2021/11/24 01:48:29;;;;;;;;;25.75;24.25;;;;;-147.17;100.00;50320.38;5012049;28;50999;-64
2021/11/24 01:50:55;;;;;;;;;30.25;25.50;;;;;-147.17;100.00;50308.59;5020051;28;51145;-67
2021/11/24 01:53:21;;;;;;;;;28.00;27.50;;;;;-147.17;100.00;50332.19;5031417;28;52129;-66
2021/11/24 01:55:47;;;;;;;;;26.25;25.25;;;;;-147.17;100.00;50340.06;5027865;28;50960;-64
2021/11/24 01:58:13;;;;;;;;;23.00;21.00;;;;;-147.17;100.00;50300.72;5012181;28;51127;-65
2021/11/24 02:00:38;;;;;;;;;28.00;25.25;;;;;-147.17;100.00;50284.97;5017008;28;51101;-65
2021/11/24 02:03:05;;;;;;;;;24.75;22.50;;;;;-147.17;100.00;50332.19;5022565;28;52305;-66
2021/11/24 02:05:30;;;;;;;;;27.50;21.25;;;;;-147.17;100.00;50328.25;5026105;28;51264;-64
2021/11/24 02:07:56;;;;;;;;;28.00;26.75;;;;;-147.17;100.00;50334.16;5029891;28;51232;-64
2021/11/24 02:10:22;;;;;;;;;26.50;25.50;;;;;-147.17;100.00;50328.25;5037433;28;51153;-67
2021/11/24 02:12:49;;;;;;;;;27.00;24.75;;;;;-147.17;100.00;50336.13;5029999;28;51839;-67
2021/11/24 02:15:14;;;;;;;;;28.00;25.75;;;;;-147.17;100.00;50314.47;5038870;28;51339;-66
2021/11/24 02:17:39;;;;;;;;;33.00;26.50;;;;;-147.17;100.00;50353.84;5032745;28;51142;-66
2021/11/24 02:20:11;;;;;;;;;25.50;25.00;;;;;-147.17;100.00;50320.38;5040788;28;50864;-67
2021/11/24 02:22:36;;;;;;;;;29.75;25.75;;;;;-147.17;100.00;50330.22;5033285;28;51208;-66
2021/11/24 02:25:01;;;;;;;;;28.50;27.00;;;;;-147.17;100.00;50314.47;5039533;28;51186;-67
2021/11/24 02:27:27;;;;;;;;;30.00;27.00;;;;;-147.17;100.00;50328.25;5045372;28;51171;-67
2021/11/24 02:29:52;;;;;;;;;29.75;28.00;;;;;-147.17;100.00;50308.59;5048065;28;50880;-67
2021/11/24 02:32:18;;;;;;;;;25.75;25.25;;;;;-147.17;100.00;50320.38;5040615;28;50940;-67
2021/11/24 02:34:43;;;;;;;;;24.50;20.75;;;;;-147.17;100.00;50310.56;5039887;28;51727;-66
2021/11/24 02:37:09;;;;;;;;;28.25;25.50;;;;;-147.17;100.00;50318.41;5040835;28;51145;-67
2021/11/24 02:39:35;;;;;;;;;25.50;22.50;;;;;-147.17;100.00;50316.44;5028246;28;51273;-67
2021/11/24 02:42:00;;;;;;;;;29.25;27.50;;;;;-147.17;100.00;50324.31;5028746;28;50972;-67
2021/11/24 02:44:40;;;;;;;;;28.75;25.50;;;;;-147.17;100.00;50318.41;5021557;28;51053;-67
2021/11/24 02:47:05;;;;;;;;;35.50;28.50;;;;;-147.17;100.00;50316.44;5040941;28;51094;-66
2021/11/24 02:49:39;;;;;;;;;26.00;25.25;;;;;-147.17;100.00;50324.31;5039632;28;51247;-66
2021/11/24 02:52:06;;;;;;;;;27.25;25.75;;;;;-147.17;100.00;50298.75;5028850;28;51970;-67
2021/11/24 02:54:31;;;;;;;;;28.75;25.00;;;;;-147.17;100.00;50318.41;5026877;28;51091;-64
2021/11/24 02:57:05;;;;;;;;;28.00;28.00;;;;;-147.17;100.00;50304.66;5034685;28;50948;-65
2021/11/24 02:59:31;;;;;;;;;29.00;25.00;;;;;-147.17;100.00;50340.06;5014336;28;51205;-65
2021/11/24 03:01:56;;;;;;;;;30.75;27.50;;;;;-147.17;100.00;50330.22;5023326;28;51781;-65
2021/11/24 03:04:30;;;;;;;;;27.50;24.25;;;;;-147.17;100.00;50304.66;5021142;28;51050;-64
2021/11/24 03:06:58;;;;;;;;;32.75;27.50;;;;;-147.17;100.00;50310.56;5020413;28;51418;-64
2021/11/24 03:09:24;;;;;;;;;28.25;27.25;;;;;-147.17;100.00;50314.47;5028457;28;51269;-64
2021/11/24 03:11:50;;;;;;;;;23.00;22.00;;;;;-147.17;100.00;50277.09;5026041;28;51143;-64
2021/11/24 03:14:16;;;;;;;;;26.75;24.25;;;;;-147.17;100.00;50298.75;5029078;28;51173;-65
2021/11/24 03:16:41;;;;;;;;;28.75;27.75;;;;;-147.17;100.00;50296.78;5038918;28;51027;-66
2021/11/24 03:19:06;;;;;;;;;23.50;23.00;;;;;-147.17;100.00;50314.47;5029498;28;51156;-65
2021/11/24 03:21:32;;;;;;;;;24.50;21.75;;;;;-147.17;100.00;50316.44;5028094;28;52588;-66
2021/11/24 03:23:57;;;;;;;;;39.00;32.25;;;;;-147.17;100.00;50310.56;5029760;28;51357;-65
2021/11/24 03:26:22;;;;;;;;;27.75;23.75;;;;;-147.17;100.00;50332.19;5033566;28;51375;-66
2021/11/24 03:28:48;;;;;;;;;37.75;30.75;;;;;-147.17;100.00;50334.16;5033301;28;51304;-71
2021/11/24 03:31:13;;;;;;;;;29.25;28.00;;;;;-147.17;100.00;50318.41;5035742;28;50996;-71
2021/11/24 03:33:39;;;;;;;;;27.50;24.25;;;;;-147.17;100.00;50324.31;5035742;28;51156;-71
2021/11/24 03:36:05;;;;;;;;;28.50;25.25;;;;;-147.17;100.00;50344.00;5040543;28;51042;-72
2021/11/24 03:38:30;;;;;;;;;27.00;23.00;;;;;-147.17;100.00;50332.19;5034409;28;51344;-71
2021/11/24 03:40:55;;;;;;;;;28.25;23.50;;;;;-147.17;100.00;50292.84;5029157;28;52566;-66
2021/11/24 03:43:21;;;;;;;;;30.00;26.25;;;;;-147.17;100.00;50318.41;5037821;28;51163;-69
2021/11/24 03:45:46;;;;;;;;;30.00;26.75;;;;;-147.17;100.00;50306.63;5038695;28;51124;-70
2021/11/24 03:48:11;;;;;;;;;33.00;27.75;;;;;-147.17;100.00;50318.41;5036211;28;51283;-69
2021/11/24 03:50:38;;;;;;;;;29.25;24.75;;;;;-147.17;100.00;50332.19;5037975;28;51171;-69
2021/11/24 03:53:03;;;;;;;;;33.00;26.25;;;;;-147.17;100.00;50296.78;5033674;28;51283;-69
2021/11/24 03:55:30;;;;;;;;;30.00;27.25;;;;;-147.17;100.00;50336.13;5017299;28;51256;-71
2021/11/24 03:57:55;;;;;;;;;27.75;25.75;;;;;-147.17;100.00;50281.03;5020221;28;51283;-70
2021/11/24 04:00:26;;;;;;;;;26.25;23.50;;;;;-147.17;100.00;50308.59;5048112;28;53007;-66
2021/11/24 04:02:51;;;;;;;;;29.00;27.00;;;;;-147.17;100.00;50306.63;5013518;28;51052;-66
2021/11/24 04:05:17;;;;;;;;;32.25;29.00;;;;;-147.17;100.00;50300.72;5015587;28;51000;-66
2021/11/24 04:07:43;;;;;;;;;30.50;27.25;;;;;-147.17;100.00;50306.63;5015047;28;51076;-66
2021/11/24 04:10:10;;;;;;;;;29.00;25.50;;;;;-147.17;100.00;50320.38;5031660;28;51128;-66
2021/11/24 04:12:37;;;;;;;;;32.00;28.50;;;;;-147.17;100.00;50316.44;5018853;28;51020;-65
2021/11/24 04:15:07;;;;;;;;;34.75;30.00;;;;;-147.17;100.00;50294.81;5023322;28;51253;-64
2021/11/24 04:17:33;;;;;;;;;30.50;28.25;;;;;-147.17;100.00;50330.22;5027095;28;51349;-66
2021/11/24 04:19:59;;;;;;;;;29.75;25.00;;;;;-147.17;100.00;50312.53;5023988;28;53254;-66
2021/11/24 04:22:24;;;;;;;;;30.50;28.00;;;;;-147.17;100.00;50308.59;5024807;28;51032;-65
2021/11/24 04:24:50;;;;;;;;;32.25;27.50;;;;;-147.17;100.00;50308.59;5029935;28;50936;-65
2021/11/24 04:27:15;;;;;;;;;31.00;28.25;;;;;-147.17;100.00;50324.31;5033779;28;51392;-65
2021/11/24 04:29:41;;;;;;;;;28.75;25.00;;;;;-147.17;100.00;50302.69;5032122;28;52165;-64
2021/11/24 04:32:07;;;;;;;;;27.00;24.50;;;;;-147.17;100.00;50320.38;5032738;28;51015;-64
2021/11/24 04:34:33;;;;;;;;;21.25;19.50;;;;;-147.17;100.00;50304.66;5026364;28;51101;-64
2021/11/24 04:36:58;;;;;;;;;30.00;24.25;;;;;-147.17;100.00;50318.41;5030335;28;50928;-65
2021/11/24 04:39:24;;;;;;;;;31.25;27.50;;;;;-147.17;100.00;50324.31;5025250;28;51099;-65
2021/11/24 04:41:49;;;;;;;;;32.00;29.00;;;;;-147.17;100.00;50316.44;5039839;28;50993;-64
2021/11/24 04:44:14;;;;;;;;;24.50;23.25;;;;;-147.17;100.00;50332.19;5031876;28;50951;-65
2021/11/24 04:46:40;;;;;;;;;23.50;21.75;;;;;-147.17;100.00;50281.03;5030168;28;51223;-64
2021/11/24 04:49:05;;;;;;;;;29.50;28.50;;;;;-147.17;100.00;50296.78;5026739;28;51866;-65
2021/11/24 04:51:31;;;;;;;;;32.25;29.75;;;;;-147.17;100.00;50322.34;5027385;28;50999;-65
2021/11/24 04:53:56;;;;;;;;;36.50;32.25;;;;;-147.17;100.00;50316.44;5025362;28;51076;-64
2021/11/24 04:56:21;;;;;;;;;33.75;33.00;;;;;-147.17;100.00;50316.44;5013389;28;50992;-64
2021/11/24 04:58:53;;;;;;;;;31.25;29.25;;;;;-147.17;100.00;50308.59;5016854;28;51715;-64
2021/11/24 05:01:20;;;;;;;;;32.25;26.00;;;;;-147.17;100.00;50322.34;5029086;28;50958;-65
2021/11/24 05:03:45;;;;;;;;;29.50;28.00;;;;;-147.17;100.00;50298.75;5023496;28;51122;-66
2021/11/24 05:06:11;;;;;;;;;26.00;25.50;;;;;-147.17;100.00;50312.53;5028908;28;51288;-65
2021/11/24 05:08:37;;;;;;;;;27.75;24.75;;;;;-147.17;100.00;50308.59;5029547;28;51063;-65
2021/11/24 05:11:03;;;;;;;;;22.75;21.50;;;;;-147.17;100.00;50336.13;5030582;28;51048;-65
2021/11/24 05:13:29;;;;;;;;;34.00;28.25;;;;;-147.17;100.00;50306.63;5030023;28;51231;-65
2021/11/24 05:16:01;;;;;;;;;28.00;26.00;;;;;-147.17;100.00;50328.25;5027686;28;51247;-65
2021/11/24 05:18:35;;;;;;;;;31.50;28.50;;;;;-147.17;100.00;50336.13;5031704;28;51914;-65
2021/11/24 05:21:07;;;;;;;;;24.50;22.75;;;;;-147.17;100.00;50332.19;5032358;28;51118;-65
2021/11/24 05:23:37;;;;;;;;;30.00;28.25;;;;;-147.17;100.00;50324.31;5031042;28;51313;-65
2021/11/24 05:26:04;;;;;;;;;28.25;23.50;;;;;-147.17;100.00;50324.31;5026379;28;51141;-65
2021/11/24 05:28:31;;;;;;;;;38.00;32.50;;;;;-147.17;100.00;50336.13;5026690;28;51683;-65
2021/11/24 05:30:56;;;;;;;;;29.25;26.25;;;;;-147.17;100.00;50322.34;5031243;28;51066;-65
2021/11/24 05:33:21;;;;;;;;;33.00;29.75;;;;;-147.17;100.00;50320.38;5031211;28;50975;-65
2021/11/24 05:35:47;;;;;;;;;21.75;21.00;;;;;-147.17;100.00;50316.44;5027313;28;50968;-65
2021/11/24 05:38:12;;;;;;;;;28.50;28.00;;;;;-147.17;100.00;50318.41;5032785;28;51131;-65
2021/11/24 05:40:37;;;;;;;;;28.50;24.75;;;;;-147.17;100.00;50332.19;5035416;28;50887;-65
2021/11/24 05:43:03;;;;;;;;;27.25;26.25;;;;;-147.17;100.00;50332.19;5028333;28;51211;-65
2021/11/24 05:45:44;;;;;;;;;28.25;25.75;;;;;-147.17;100.00;50320.38;5028387;28;51162;-65
2021/11/24 05:48:10;;;;;;;;;29.75;26.25;;;;;-147.17;100.00;50340.06;5034422;28;53053;-65
2021/11/24 05:50:37;;;;;;;;;28.25;24.25;;;;;-147.17;100.00;50312.53;5024115;28;51135;-65
2021/11/24 05:53:03;;;;;;;;;30.25;29.00;;;;;-147.17;100.00;50347.94;5029862;28;51023;-64
2021/11/24 05:55:29;;;;;;;;;25.50;22.25;;;;;-147.17;100.00;50320.38;5035029;28;51293;-65
2021/11/24 05:57:54;;;;;;;;;33.00;28.50;;;;;-147.17;100.00;50300.72;5024738;28;51657;-65
2021/11/24 06:00:20;;;;;;;;;34.50;25.50;;;;;-147.17;100.00;50324.31;5033889;28;51257;-65
2021/11/24 06:02:46;;;;;;;;;28.50;24.50;;;;;-147.17;100.00;50332.19;5030861;28;52342;-65
2021/11/24 06:05:12;;;;;;;;;30.00;27.25;;;;;-147.17;100.00;50286.94;5032437;28;51133;-65
2021/11/24 06:07:38;;;;;;;;;32.75;28.75;;;;;-147.17;100.00;50320.38;5033578;28;51121;-65
2021/11/24 06:10:09;;;;;;;;;34.75;28.75;;;;;-147.17;100.00;50328.25;5031440;28;51034;-65
2021/11/24 06:12:35;;;;;;;;;28.75;25.75;;;;;-147.17;100.00;50338.09;5034897;28;51080;-65
2021/11/24 06:15:01;;;;;;;;;32.00;30.50;;;;;-147.17;100.00;50344.00;5034052;28;51398;-65
2021/11/24 06:17:26;;;;;;;;;27.75;25.25;;;;;-147.17;100.00;50290.88;5034217;28;52166;-65
2021/11/24 06:19:52;;;;;;;;;28.25;24.00;;;;;-147.17;100.00;50338.09;5034663;28;51173;-65
2021/11/24 06:22:18;;;;;;;;;23.50;22.75;;;;;-147.17;100.00;50312.53;5035063;28;51152;-65
2021/11/24 06:24:44;;;;;;;;;22.75;19.75;;;;;-147.17;100.00;50328.25;5031973;28;51299;-66
2021/11/24 06:27:09;;;;;;;;;32.50;30.25;;;;;-147.17;100.00;50338.09;5035479;28;51650;-65
2021/11/24 06:29:35;;;;;;;;;32.25;26.25;;;;;-147.17;100.00;50328.25;5034383;28;51165;-64
2021/11/24 06:32:00;;;;;;;;;23.00;20.25;;;;;-147.17;100.00;50344.00;5034607;28;51129;-64
2021/11/24 06:34:25;;;;;;;;;22.25;21.50;;;;;-147.17;100.00;50304.66;5032516;28;50991;-65
2021/11/24 06:36:53;;;;;;;;;27.00;23.50;;;;;-147.17;100.00;50328.25;5033739;28;53037;-64
2021/11/24 06:39:20;;;;;;;;;30.50;25.75;;;;;-147.17;100.00;50312.53;5034501;28;51043;-64
2021/11/24 06:41:45;;;;;;;;;32.50;26.00;;;;;-147.17;100.00;50302.69;5035028;28;51015;-65
2021/11/24 06:44:10;;;;;;;;;28.00;26.00;;;;;-147.17;100.00;50328.25;5033635;28;51200;-63
2021/11/24 06:46:36;;;;;;;;;22.00;21.00;;;;;-147.17;100.00;50347.94;5022273;28;51224;-64
2021/11/24 06:49:02;;;;;;;;;26.00;22.50;;;;;-147.17;100.00;50363.69;5022699;28;51345;-64
2021/11/24 06:51:27;;;;;;;;;28.00;26.00;;;;;-147.17;100.00;50353.84;5032189;28;51965;-65
2021/11/24 06:53:53;;;;;;;;;28.25;25.50;;;;;-147.17;100.00;50345.97;5032192;28;51343;-64
2021/11/24 06:56:18;;;;;;;;;26.75;24.25;;;;;-147.17;100.00;50316.44;5028961;28;51906;-64
2021/11/24 06:58:43;;;;;;;;;30.00;25.75;;;;;-147.17;100.00;50332.19;5032784;28;50938;-65
2021/11/24 07:01:09;;;;;;;;;37.00;30.00;;;;;-147.17;100.00;50355.81;5031648;28;51155;-65
2021/11/24 07:03:34;;;;;;;;;23.50;20.25;;;;;-147.17;100.00;50347.94;5034099;28;51005;-64
2021/11/24 07:05:59;;;;;;;;;25.25;23.50;;;;;-147.17;100.00;50347.94;5034070;28;51039;-65
2021/11/24 07:08:25;;;;;;;;;23.75;20.50;;;;;-147.17;100.00;50342.03;5022659;28;50872;-65
2021/11/24 07:10:50;;;;;;;;;22.50;21.00;;;;;-147.17;100.00;50336.13;5029675;28;51629;-65
2021/11/24 07:13:16;;;;;;;;;23.00;19.00;;;;;-147.17;100.00;50347.94;5034110;28;51515;-65
2021/11/24 07:15:41;;;;;;;;;23.25;21.50;;;;;-147.17;100.00;50351.88;5029402;28;52004;-63
2021/11/24 07:18:07;;;;;;;;;22.50;19.25;;;;;-147.17;100.00;50355.81;5013916;28;51024;-65
2021/11/24 07:20:33;;;;;;;;;24.00;23.75;;;;;-147.17;100.00;50351.88;5013902;28;50847;-65
2021/11/24 07:22:58;;;;;;;;;28.00;24.00;;;;;-147.17;100.00;50338.09;5033542;28;51594;-66
2021/11/24 07:25:24;;;;;;;;;23.50;23.25;;;;;-147.17;100.00;50353.84;5033194;28;51042;-65
2021/11/24 07:27:50;;;;;;;;;20.25;18.25;;;;;-147.17;100.00;50340.06;5031916;28;51139;-65
2021/11/24 07:30:18;;;;;;;;;22.50;20.50;;;;;-147.17;100.00;50312.53;5025884;28;51234;-65
2021/11/24 07:32:44;;;;;;;;;26.25;24.50;;;;;-147.17;100.00;50342.03;5032656;28;51121;-64
2021/11/24 07:35:10;;;;;;;;;20.00;19.00;;;;;-147.17;100.00;50334.16;5040395;28;51340;-65
2021/11/24 07:37:35;;;;;;;;;25.00;20.00;;;;;-147.17;100.00;50375.50;5027779;28;51366;-64
2021/11/24 07:40:01;;;;;;;;;25.75;22.75;;;;;-147.17;100.00;50344.00;5033547;28;51133;-66
2021/11/24 07:42:26;;;;;;;;;26.50;24.00;;;;;-147.17;100.00;50357.78;5032134;28;50891;-66
2021/11/24 07:44:52;;;;;;;;;24.50;21.25;;;;;-147.17;100.00;50349.91;5014030;28;52504;-66
2021/11/24 07:47:18;;;;;;;;;21.00;19.50;;;;;-147.17;100.00;50359.75;5013876;28;51179;-62
2021/11/24 07:49:43;;;;;;;;;28.50;26.75;;;;;-147.17;100.00;50383.38;5030376;28;51167;-63
2021/11/24 07:52:08;;;;;;;;;22.75;21.75;;;;;-147.17;100.00;50351.88;5028773;28;51010;-61
2021/11/24 07:54:34;;;;;;;;;21.75;20.75;;;;;-147.17;100.00;50344.00;5029565;28;51193;-61
2021/11/24 07:56:59;;;;;;;;;26.00;22.00;;;;;-147.17;100.00;50361.72;5032583;28;50943;-60
2021/11/24 07:59:25;;;;;;;;;29.00;25.75;;;;;-147.17;100.00;50359.75;5043710;28;51174;-61
2021/11/24 08:01:50;;;;;;;;;30.75;27.25;;;;;-147.17;100.00;50353.84;5030540;28;51187;-60
2021/11/24 08:04:16;;;;;;;;;29.50;26.50;;;;;-147.17;100.00;50342.03;5027686;28;51195;-61
2021/11/24 08:06:43;;;;;;;;;29.25;25.50;;;;;-147.17;100.00;50340.06;5027675;28;51342;-61
2021/11/24 08:09:09;;;;;;;;;24.50;23.00;;;;;-147.17;100.00;50342.03;5028937;28;51135;-60
2021/11/24 08:11:34;;;;;;;;;28.25;24.75;;;;;-147.17;100.00;50359.75;5034614;28;51302;-61
2021/11/24 08:14:00;;;;;;;;;18.25;17.00;;;;;-147.17;100.00;50330.22;5029112;28;52400;-61
2021/11/24 08:16:26;;;;;;;;;23.25;22.50;;;;;-147.17;100.00;50347.94;5029336;28;51197;-59
2021/11/24 08:18:52;;;;;;;;;23.50;22.25;;;;;-147.17;100.00;50347.94;5032068;28;51311;-60
2021/11/24 08:21:17;;;;;;;;;19.50;17.00;;;;;-147.17;100.00;50347.94;5030639;28;51269;-61
2021/11/24 08:23:42;;;;;;;;;26.50;23.25;;;;;-147.17;100.00;50328.25;5022913;28;51788;-61
2021/11/24 08:26:08;;;;;;;;;30.00;27.50;;;;;-147.17;100.00;50322.34;5031013;28;51109;-60
2021/11/24 08:28:33;;;;;;;;;27.25;25.25;;;;;-147.17;100.00;50351.88;5025119;28;51294;-60
2021/11/24 08:30:59;;;;;;;;;29.75;25.75;;;;;-147.17;100.00;50342.03;5021600;28;51796;-59
2021/11/24 08:33:24;;;;;;;;;20.75;20.25;;;;;-147.17;100.00;50324.31;5031866;28;51829;-60
2021/11/24 08:35:50;;;;;;;;;28.00;25.25;;;;;-147.17;100.00;50379.44;5029311;28;51064;-59
2021/11/24 08:38:17;;;;;;;;;31.00;27.00;;;;;-147.17;100.00;50334.16;5031079;28;51044;-61
2021/11/24 08:40:43;;;;;;;;;27.25;26.50;;;;;-147.17;100.00;50344.00;5030761;28;51360;-61
2021/11/24 08:43:09;;;;;;;;;23.00;22.25;;;;;-147.17;100.00;50326.28;5030893;28;53342;-62
2021/11/24 08:45:35;;;;;;;;;22.50;19.50;;;;;-147.17;100.00;50355.81;5029438;28;51134;-61
2021/11/24 08:48:03;;;;;;;;;20.50;19.00;;;;;-147.17;100.00;50344.00;5031955;28;51296;-62
2021/11/24 08:50:29;;;;;;;;;21.50;21.00;;;;;-147.17;100.00;50324.31;5031905;28;51130;-62
2021/11/24 08:52:54;;;;;;;;;22.50;20.25;;;;;-147.17;100.00;50391.25;5029660;28;51151;-61
2021/11/24 08:55:20;;;;;;;;;28.00;22.50;;;;;-147.17;100.00;50355.81;5043871;28;51159;-63
2021/11/24 08:57:46;;;;;;;;;18.75;18.25;;;;;-147.17;100.00;50359.75;5031537;28;51116;-62
2021/11/24 09:00:16;;;;;;;;;21.00;19.75;;;;;-147.17;100.00;50357.78;5031732;28;51055;-63
2021/11/24 09:02:42;;;;;;;;;27.75;24.00;;;;;-147.17;100.00;50332.19;5029643;28;52223;-61
2021/11/24 09:05:08;;;;;;;;;22.75;19.00;;;;;-147.17;100.00;50363.69;5031352;28;51169;-61
2021/11/24 09:07:34;;;;;;;;;21.25;19.50;;;;;-147.17;100.00;50347.94;5031045;28;51028;-61
2021/11/24 09:10:01;;;;;;;;;19.00;17.50;;;;;-147.17;100.00;50332.19;5030284;28;51424;-61
2021/11/24 09:12:26;;;;;;;;;25.25;22.25;;;;;-147.17;100.00;50332.19;5027603;28;51407;-64
2021/11/24 09:14:52;;;;;;;;;28.75;24.50;;;;;-147.17;100.00;50381.41;5033569;28;51019;-61
2021/11/24 09:17:17;;;;;;;;;21.25;21.00;;;;;-147.17;100.00;50351.88;5033292;28;51113;-62
2021/11/24 09:19:45;;;;;;;;;20.25;16.75;;;;;-147.17;100.00;50334.16;5034148;28;51208;-60
2021/11/24 09:22:11;;;;;;;;;31.25;26.25;;;;;-147.17;100.00;50359.75;5017418;28;52933;-62
2021/11/24 09:24:36;;;;;;;;;29.00;26.50;;;;;-147.17;100.00;50328.25;5035877;28;51114;-62
2021/11/24 09:27:15;;;;;;;;;28.00;24.75;;;;;-147.17;100.00;50351.88;5031062;28;52376;-63
2021/11/24 09:29:40;;;;;;;;;26.25;23.75;;;;;-147.17;100.00;50336.13;5032237;28;51232;-61
2021/11/24 09:32:06;;;;;;;;;30.75;28.00;;;;;-147.17;100.00;50330.22;5034086;28;51852;-60
2021/11/24 09:34:32;;;;;;;;;30.00;29.25;;;;;-147.17;100.00;50351.88;5054061;28;51070;-62
2021/11/24 09:36:58;;;;;;;;;24.50;23.50;;;;;-147.17;100.00;50342.03;5039408;28;51389;-62
2021/11/24 09:39:24;;;;;;;;;25.75;23.00;;;;;-147.17;100.00;50371.56;5024264;28;51196;-62
2021/11/24 09:41:50;;;;;;;;;27.75;25.00;;;;;-147.17;100.00;50344.00;5022461;28;52895;-62
2021/11/24 09:44:16;;;;;;;;;26.75;24.00;;;;;-147.17;100.00;50355.81;5026769;28;51399;-61
2021/11/24 09:46:45;;;;;;;;;24.75;23.25;;;;;-147.17;100.00;50351.88;5025924;28;51480;-62
2021/11/24 09:49:11;;;;;;;;;27.50;25.25;;;;;-147.17;100.00;50340.06;5029268;28;51442;-62
2021/11/24 09:51:38;;;;;;;;;24.25;21.25;;;;;-147.17;100.00;50365.66;5041121;28;52143;-62
2021/11/24 09:54:04;;;;;;;;;26.50;24.25;;;;;-147.17;100.00;50369.59;5030126;28;51418;-62
2021/11/24 09:56:30;;;;;;;;;27.25;26.00;;;;;-147.17;100.00;50355.81;5029333;28;51135;-61
2021/11/24 09:58:56;;;;;;;;;28.75;27.25;;;;;-147.17;100.00;50371.56;5035030;28;50975;-62
2021/11/24 10:01:23;;;;;;;;;28.00;24.50;;;;;-147.17;100.00;50347.94;5037210;28;51144;-63
2021/11/24 10:03:48;;;;;;;;;24.50;23.50;;;;;-147.17;100.00;50369.59;5044808;28;51006;-62
2021/11/24 10:06:15;;;;;;;;;27.25;23.25;;;;;-147.17;100.00;50344.00;5041214;28;51209;-62
2021/11/24 10:08:40;;;;;;;;;31.75;29.50;;;;;-147.17;100.00;50387.31;5040419;28;51164;-62
2021/11/24 10:11:06;;;;;;;;;24.50;23.25;;;;;-147.17;100.00;50336.13;5034253;28;50988;-63
2021/11/24 10:13:31;;;;;;;;;26.50;25.00;;;;;-147.17;100.00;50399.13;5044581;28;51018;-62
2021/11/24 10:15:57;;;;;;;;;28.50;27.75;;;;;-147.17;100.00;50401.09;5036475;28;51059;-62
2021/11/24 10:18:32;;;;;;;;;20.00;19.25;;;;;-147.17;100.00;50342.03;5034735;28;51328;-62
2021/11/24 10:21:06;;;;;;;;;27.75;26.50;;;;;-147.17;100.00;50359.75;5023491;28;51773;-62
2021/11/24 10:23:38;;;;;;;;;28.75;25.00;;;;;-147.17;100.00;50373.53;5024894;28;51339;-63
2021/11/24 10:26:21;;;;;;;;;32.75;28.75;;;;;-147.17;100.00;50385.34;5023138;28;51441;-63
2021/11/24 10:28:57;;;;;;;;;27.50;26.50;;;;;-147.17;100.00;50381.41;5023463;28;51186;-61
2021/11/24 10:31:29;;;;;;;;;32.00;27.25;;;;;-147.17;100.00;50351.88;5027708;28;51919;-63
2021/11/24 10:33:55;;;;;;;;;29.50;26.50;;;;;-147.17;100.00;50381.41;5024198;28;51294;-61
2021/11/24 10:36:21;;;;;;;;;28.25;25.25;;;;;-147.17;100.00;50377.47;5024743;28;51406;-62
2021/11/24 10:38:49;;;;;;;;;22.75;22.50;;;;;-147.17;100.00;50383.38;5027230;28;51802;-62
2021/11/24 10:41:39;;;;;;;;;31.00;26.50;;;;;-147.17;100.00;50397.16;5024253;28;51868;-64
2021/11/24 10:44:06;;;;;;;;;24.25;22.00;;;;;-147.17;100.00;50422.75;5026244;28;50982;-62
2021/11/24 10:46:34;;;;;;;;;25.75;22.75;;;;;-147.17;100.00;50395.19;5025080;28;50950;-63
2021/11/24 10:49:05;;;;;;;;;23.50;22.25;;;;;-147.17;100.00;50432.59;5027459;28;52191;-63
2021/11/24 10:51:38;;;;;;;;;25.75;23.75;;;;;-147.17;100.00;50407.00;5021963;28;52019;-63